Time;durP1;ratioP1;P1;durP2;ratioP2;P2;SDS_P1;SDS_P2;PMS_P1;PMS_P2;Temp;Humidity;BMP_temperature;BMP_pressure;BME280_temperature;BME280_humidity;BME280_pressure;Samples;Min_cycle;Max_cycle;Signal;HPM_P1;HPM_P2
2021/12/27 00:01:49;;;;;;;0.00;0.00;;;-2.50;99.90;;;;;;4887162;29;20032;-66
2021/12/27 00:04:15;;;;;;;0.00;0.00;;;-2.50;99.90;;;;;;4887643;29;20456;-66
2021/12/27 00:06:41;;;;;;;0.00;0.00;;;-2.50;99.90;;;;;;4888178;29;20037;-67
2021/12/27 00:09:06;;;;;;;0.00;0.00;;;-2.50;99.90;;;;;;4889812;29;20128;-67
2021/12/27 00:11:32;;;;;;;0.00;0.00;;;-2.50;99.90;;;;;;4887257;29;20060;-66
2021/12/27 00:13:57;;;;;;;0.00;0.00;;;-2.40;99.90;;;;;;4888417;29;20032;-66
2021/12/27 00:16:23;;;;;;;0.00;0.00;;;-2.40;99.90;;;;;;4887205;29;20412;-66
2021/12/27 00:18:48;;;;;;;0.00;0.00;;;-2.40;99.90;;;;;;4889937;29;20079;-66
2021/12/27 00:21:14;;;;;;;0.00;0.00;;;-2.40;99.90;;;;;;4888769;29;20028;-66
2021/12/27 00:23:39;;;;;;;0.00;0.00;;;-2.40;99.90;;;;;;4889243;29;20036;-66
2021/12/27 00:26:05;;;;;;;0.00;0.00;;;-2.40;99.90;;;;;;4887540;29;20036;-66
2021/12/27 00:28:32;;;;;;;0.00;0.00;;;-2.40;99.90;;;;;;4885628;29;20048;-66
2021/12/27 00:30:58;;;;;;;0.00;0.00;;;-2.30;99.90;;;;;;4884657;29;20100;-66
2021/12/27 00:33:24;;;;;;;0.00;0.00;;;-2.30;99.90;;;;;;4887923;29;20073;-66
2021/12/27 00:35:50;;;;;;;0.00;0.00;;;-2.40;99.90;;;;;;4885734;29;20033;-66
2021/12/27 00:38:16;;;;;;;0.00;0.00;;;-2.40;99.90;;;;;;4895765;29;20041;-66
2021/12/27 00:40:42;;;;;;;0.00;0.00;;;-2.30;99.90;;;;;;4886662;29;20047;-66
2021/12/27 00:43:08;;;;;;;0.00;0.00;;;-2.40;99.90;;;;;;4896275;29;20032;-66
2021/12/27 00:45:34;;;;;;;0.00;0.00;;;-2.30;99.90;;;;;;4881751;29;20110;-66
2021/12/27 00:47:59;;;;;;;0.00;0.00;;;-2.30;99.90;;;;;;4893134;29;20032;-66
2021/12/27 00:50:26;;;;;;;0.00;0.00;;;-2.30;99.90;;;;;;4882985;29;20041;-65
2021/12/27 00:52:52;;;;;;;0.00;0.00;;;-2.30;99.90;;;;;;4897044;29;20532;-66
2021/12/27 00:55:18;;;;;;;0.00;0.00;;;-2.30;99.90;;;;;;4892767;29;20103;-66
2021/12/27 00:57:46;;;;;;;0.00;0.00;;;-2.20;99.90;;;;;;4880726;29;20036;-66
2021/12/27 01:00:16;;;;;;;0.00;0.00;;;-2.30;99.90;;;;;;4879605;29;20025;-66
2021/12/27 01:02:42;;;;;;;0.00;0.00;;;-2.30;99.90;;;;;;4888356;29;20064;-66
2021/12/27 01:05:09;;;;;;;0.00;0.00;;;-2.30;99.90;;;;;;4885310;29;20112;-66
2021/12/27 01:07:35;;;;;;;0.00;0.00;;;-2.30;99.90;;;;;;4897366;29;20136;-66
2021/12/27 01:17:42;;;;;;;0.00;0.00;;;-2.30;99.90;;;;;;4886896;29;20032;-66
2021/12/27 01:20:12;;;;;;;0.00;0.00;;;-2.30;99.90;;;;;;4886346;29;20037;-66
2021/12/27 01:22:38;;;;;;;0.00;0.00;;;-2.30;99.90;;;;;;4897635;29;20032;-66
2021/12/27 01:25:09;;;;;;;0.00;0.00;;;-2.40;99.90;;;;;;4888776;29;20476;-65
2021/12/27 01:27:35;;;;;;;0.00;0.00;;;-2.40;99.90;;;;;;4888505;29;20032;-66
2021/12/27 01:30:03;;;;;;;0.00;0.00;;;-2.40;99.90;;;;;;4891895;29;20095;-67
2021/12/27 01:32:34;;;;;;;0.00;0.00;;;-2.40;99.90;;;;;;4880509;29;20040;-66
2021/12/27 01:34:59;;;;;;;0.00;0.00;;;-2.40;99.90;;;;;;4889525;29;20056;-65
2021/12/27 01:37:25;;;;;;;0.00;0.00;;;-2.40;99.90;;;;;;4897272;29;20056;-66
2021/12/27 01:39:50;;;;;;;0.00;0.00;;;-2.40;99.90;;;;;;4885283;29;20044;-66
2021/12/27 01:42:16;;;;;;;0.00;0.00;;;-2.40;99.90;;;;;;4895060;29;20037;-66
2021/12/27 01:44:42;;;;;;;0.00;0.00;;;-2.40;99.90;;;;;;4889900;29;20040;-66
2021/12/27 01:47:09;;;;;;;0.00;0.00;;;-2.40;99.90;;;;;;4887511;29;20044;-65
2021/12/27 01:49:35;;;;;;;0.00;0.00;;;-2.40;99.90;;;;;;4895962;29;20111;-66
2021/12/27 01:52:01;;;;;;;0.00;0.00;;;-2.40;99.90;;;;;;4890228;29;20044;-66
2021/12/27 01:54:27;;;;;;;0.00;0.00;;;-2.40;99.90;;;;;;4896165;29;20040;-66
2021/12/27 01:56:52;;;;;;;0.00;0.00;;;-2.40;99.90;;;;;;4889574;29;20044;-66
2021/12/27 01:59:18;;;;;;;0.00;0.00;;;-2.40;99.90;;;;;;4893233;29;20048;-66
2021/12/27 02:01:44;;;;;;;0.00;0.00;;;-2.40;99.90;;;;;;4889770;29;20056;-65
2021/12/27 02:04:10;;;;;;;0.00;0.00;;;-2.40;99.90;;;;;;4893795;29;20040;-66
2021/12/27 02:06:35;;;;;;;0.00;0.00;;;-2.40;99.90;;;;;;4889486;29;20032;-66
2021/12/27 02:09:02;;;;;;;0.00;0.00;;;-2.40;99.90;;;;;;4882766;29;20036;-66
2021/12/27 02:11:33;;;;;;;0.00;0.00;;;-2.40;99.90;;;;;;4889160;29;20035;-66
2021/12/27 02:14:01;;;;;;;0.00;0.00;;;-2.30;99.90;;;;;;4883117;29;20052;-65
2021/12/27 02:16:26;;;;;;;0.00;0.00;;;-2.30;99.90;;;;;;4879204;29;20499;-66
2021/12/27 02:18:52;;;;;;;0.00;0.00;;;-2.30;99.90;;;;;;4897218;29;20127;-65
2021/12/27 02:21:18;;;;;;;0.00;0.00;;;-2.30;99.90;;;;;;4886753;29;20093;-67
2021/12/27 02:23:44;;;;;;;0.00;0.00;;;-2.20;99.90;;;;;;4897020;29;20036;-65
2021/12/27 02:26:11;;;;;;;0.00;0.00;;;-2.20;99.90;;;;;;4888878;29;20044;-66
2021/12/27 02:28:37;;;;;;;0.00;0.00;;;-2.20;99.90;;;;;;4896420;29;20123;-66
2021/12/27 02:31:04;;;;;;;0.00;0.00;;;-2.10;99.90;;;;;;4889564;29;20051;-66
2021/12/27 02:33:29;;;;;;;0.00;0.00;;;-2.10;99.90;;;;;;4874177;29;20033;-66
2021/12/27 02:35:57;;;;;;;0.00;0.00;;;-2.10;99.90;;;;;;4888660;29;20393;-66
2021/12/27 02:38:29;;;;;;;0.00;0.00;;;-2.10;99.90;;;;;;4894815;29;20044;-67
2021/12/27 02:40:56;;;;;;;0.00;0.00;;;-2.00;99.90;;;;;;4890474;29;20033;-66
2021/12/27 02:43:26;;;;;;;0.00;0.00;;;-2.00;99.90;;;;;;4900266;29;20037;-66
2021/12/27 02:46:02;;;;;;;0.00;0.00;;;-2.00;99.90;;;;;;4885754;29;20033;-65
2021/12/27 02:48:33;;;;;;;0.00;0.00;;;-2.00;99.90;;;;;;4893011;29;20036;-66
2021/12/27 02:50:59;;;;;;;0.00;0.00;;;-2.00;99.90;;;;;;4886624;29;20060;-65
2021/12/27 02:53:26;;;;;;;0.00;0.00;;;-2.00;99.90;;;;;;4900191;29;20029;-66
2021/12/27 02:55:54;;;;;;;0.00;0.00;;;-1.90;99.90;;;;;;4885614;29;20116;-66
2021/12/27 02:58:21;;;;;;;0.00;0.00;;;-1.90;99.90;;;;;;4888487;29;20057;-65
2021/12/27 03:00:54;;;;;;;0.00;0.00;;;-1.90;99.90;;;;;;4884442;29;20112;-66
2021/12/27 03:03:20;;;;;;;0.00;0.00;;;-1.90;99.90;;;;;;4886514;29;20037;-66
2021/12/27 03:05:47;;;;;;;0.00;0.00;;;-1.90;99.90;;;;;;4891457;29;20033;-66
2021/12/27 03:08:14;;;;;;;0.00;0.00;;;-1.90;99.90;;;;;;4890114;29;20045;-67
2021/12/27 03:10:43;;;;;;;0.00;0.00;;;-2.00;99.90;;;;;;4898375;29;20785;-66
2021/12/27 03:13:23;;;;;;;0.00;0.00;;;-2.00;99.90;;;;;;4891386;29;20041;-66
2021/12/27 03:15:53;;;;;;;0.00;0.00;;;-2.00;99.90;;;;;;4884314;29;20041;-66
2021/12/27 03:18:19;;;;;;;0.00;0.00;;;-2.00;99.90;;;;;;4893433;29;20040;-67
2021/12/27 03:20:45;;;;;;;0.00;0.00;;;-1.90;99.90;;;;;;4887876;29;20394;-66
2021/12/27 03:23:11;;;;;;;0.00;0.00;;;-1.90;99.90;;;;;;4884749;29;20405;-66
2021/12/27 03:25:36;;;;;;;0.00;0.00;;;-1.90;99.90;;;;;;4890946;29;20033;-66
2021/12/27 03:28:02;;;;;;;0.00;0.00;;;-1.90;99.90;;;;;;4889995;29;20041;-66
2021/12/27 03:30:28;;;;;;;0.00;0.00;;;-2.00;99.90;;;;;;4892207;29;20044;-67
2021/12/27 03:32:54;;;;;;;0.00;0.00;;;-1.90;99.90;;;;;;4880731;29;20068;-66
2021/12/27 03:35:27;;;;;;;0.00;0.00;;;-1.90;99.90;;;;;;4877870;29;20496;-66
2021/12/27 03:37:55;;;;;;;0.00;0.00;;;-1.90;99.90;;;;;;4891596;29;20532;-65
2021/12/27 03:40:21;;;;;;;0.00;0.00;;;-1.90;99.90;;;;;;4887058;29;20040;-66
2021/12/27 03:42:49;;;;;;;0.00;0.00;;;-1.90;99.90;;;;;;4894691;29;20024;-66
2021/12/27 03:45:17;;;;;;;0.00;0.00;;;-1.90;99.90;;;;;;4879799;29;20064;-66
2021/12/27 03:47:42;;;;;;;0.00;0.00;;;-1.90;99.90;;;;;;4887640;29;20099;-66
2021/12/27 03:50:08;;;;;;;0.00;0.00;;;-1.90;99.90;;;;;;4886429;29;20045;-66
2021/12/27 03:52:34;;;;;;;0.00;0.00;;;-1.90;99.90;;;;;;4890947;29;20076;-66
2021/12/27 03:54:59;;;;;;;0.00;0.00;;;-1.90;99.90;;;;;;4887303;29;20032;-66
2021/12/27 03:57:26;;;;;;;0.00;0.00;;;-1.90;99.90;;;;;;4888426;29;20044;-65
2021/12/27 04:02:37;;;;;;;0.00;0.00;;;-1.90;99.90;;;;;;4863937;29;20044;-65
2021/12/27 04:05:05;;;;;;;0.00;0.00;;;-1.90;99.90;;;;;;4891581;29;20081;-66
2021/12/27 04:07:34;;;;;;;0.00;0.00;;;-1.90;99.90;;;;;;4897464;29;20120;-65
2021/12/27 04:10:00;;;;;;;0.00;0.00;;;-1.90;99.90;;;;;;4881277;29;20069;-65
2021/12/27 04:12:25;;;;;;;0.00;0.00;;;-1.90;99.90;;;;;;4886143;29;20037;-65
2021/12/27 04:14:53;;;;;;;0.00;0.00;;;-1.90;99.90;;;;;;4885547;29;20033;-65
2021/12/27 04:17:19;;;;;;;0.00;0.00;;;-1.90;99.90;;;;;;4898934;29;20168;-66
2021/12/27 04:19:44;;;;;;;0.00;0.00;;;-1.90;99.90;;;;;;4891693;29;20127;-66
2021/12/27 04:22:10;;;;;;;0.00;0.00;;;-1.90;99.90;;;;;;4898298;29;20036;-66
2021/12/27 04:24:35;;;;;;;0.00;0.00;;;-1.90;99.90;;;;;;4892047;29;20393;-66
2021/12/27 04:27:01;;;;;;;0.00;0.00;;;-1.90;99.90;;;;;;4886418;29;20049;-66
2021/12/27 04:29:27;;;;;;;0.00;0.00;;;-1.90;99.90;;;;;;4897282;29;20123;-66
2021/12/27 04:31:53;;;;;;;0.00;0.00;;;-1.90;99.90;;;;;;4893052;29;20126;-66
2021/12/27 04:34:18;;;;;;;0.00;0.00;;;-1.80;99.90;;;;;;4880028;29;20029;-66
2021/12/27 04:36:44;;;;;;;0.00;0.00;;;-1.80;99.90;;;;;;4889885;29;20417;-66
2021/12/27 04:39:09;;;;;;;0.00;0.00;;;-1.80;99.90;;;;;;4880617;29;20419;-66
2021/12/27 04:41:35;;;;;;;0.00;0.00;;;-1.80;99.90;;;;;;4887527;29;20297;-66
2021/12/27 04:44:02;;;;;;;0.00;0.00;;;-1.80;99.90;;;;;;4878849;29;20481;-66
2021/12/27 04:46:27;;;;;;;0.00;0.00;;;-1.80;99.90;;;;;;4882090;29;20040;-65
2021/12/27 04:48:53;;;;;;;0.00;0.00;;;-1.80;99.90;;;;;;4878909;29;20377;-66
2021/12/27 04:51:20;;;;;;;0.00;0.00;;;-1.80;99.90;;;;;;4889268;29;20033;-66
2021/12/27 04:53:50;;;;;;;0.00;0.00;;;-1.80;99.90;;;;;;4891869;29;20127;-66
2021/12/27 04:56:15;;;;;;;0.00;0.00;;;-1.80;99.90;;;;;;4889028;29;20029;-66
2021/12/27 04:58:44;;;;;;;0.00;0.00;;;-1.80;99.90;;;;;;4890944;29;20042;-66
2021/12/27 05:01:10;;;;;;;0.00;0.00;;;-1.80;99.90;;;;;;4893509;29;20047;-67
2021/12/27 05:03:35;;;;;;;0.00;0.00;;;-1.80;99.90;;;;;;4895910;29;20041;-67
2021/12/27 05:06:01;;;;;;;0.00;0.00;;;-1.80;99.90;;;;;;4892500;29;20032;-65
2021/12/27 05:08:26;;;;;;;0.00;0.00;;;-1.80;99.90;;;;;;4894493;29;20048;-65
2021/12/27 05:10:51;;;;;;;0.00;0.00;;;-1.80;99.90;;;;;;4887003;29;20475;-66
2021/12/27 05:13:18;;;;;;;0.00;0.00;;;-1.80;99.90;;;;;;4879023;29;20043;-66
2021/12/27 05:15:43;;;;;;;0.00;0.00;;;-1.80;99.90;;;;;;4888836;29;20067;-66
2021/12/27 05:18:09;;;;;;;0.00;0.00;;;-1.80;99.90;;;;;;4886827;29;20056;-66
2021/12/27 05:20:35;;;;;;;0.00;0.00;;;-1.80;99.90;;;;;;4889404;29;20461;-66
2021/12/27 05:23:00;;;;;;;0.00;0.00;;;-1.80;99.90;;;;;;4892189;29;20480;-67
2021/12/27 05:25:26;;;;;;;0.00;0.00;;;-1.80;99.90;;;;;;4887799;29;20076;-66
2021/12/27 05:27:51;;;;;;;0.00;0.00;;;-1.80;99.90;;;;;;4878017;29;20128;-66
2021/12/27 05:30:17;;;;;;;0.00;0.00;;;-1.80;99.90;;;;;;4884423;29;20051;-66
2021/12/27 05:32:44;;;;;;;0.00;0.00;;;-1.70;99.90;;;;;;4879185;29;20116;-66
2021/12/27 05:35:11;;;;;;;0.00;0.00;;;-1.70;99.90;;;;;;4891405;29;20112;-66
2021/12/27 05:37:37;;;;;;;0.00;0.00;;;-1.70;99.90;;;;;;4884301;29;20643;-66
2021/12/27 05:40:06;;;;;;;0.00;0.00;;;-1.70;99.90;;;;;;4883224;29;20095;-66
2021/12/27 05:42:33;;;;;;;0.00;0.00;;;-1.70;99.90;;;;;;4897072;29;20085;-66
2021/12/27 05:44:59;;;;;;;0.00;0.00;;;-1.70;99.90;;;;;;4866859;29;20527;-66
2021/12/27 05:47:24;;;;;;;0.00;0.00;;;-1.70;99.90;;;;;;4891747;29;20033;-66
2021/12/27 05:49:51;;;;;;;0.00;0.00;;;-1.80;99.90;;;;;;4882631;29;20224;-66
2021/12/27 05:52:16;;;;;;;0.00;0.00;;;-1.80;99.90;;;;;;4890891;29;20040;-66
2021/12/27 05:54:42;;;;;;;0.00;0.00;;;-1.70;99.90;;;;;;4892333;29;20087;-66
2021/12/27 05:57:08;;;;;;;0.00;0.00;;;-1.70;99.90;;;;;;4891662;29;20547;-66
2021/12/27 05:59:33;;;;;;;0.00;0.00;;;-1.70;99.90;;;;;;4878819;29;20059;-66
2021/12/27 06:01:59;;;;;;;0.00;0.00;;;-1.70;99.90;;;;;;4887664;29;20040;-66
2021/12/27 06:04:24;;;;;;;0.00;0.00;;;-1.70;99.90;;;;;;4886527;29;20041;-67
2021/12/27 06:06:50;;;;;;;0.00;0.00;;;-1.70;99.90;;;;;;4889172;29;20049;-66
2021/12/27 06:09:15;;;;;;;0.00;0.00;;;-1.60;99.90;;;;;;4878910;29;20468;-67
2021/12/27 06:11:41;;;;;;;0.00;0.00;;;-1.70;99.90;;;;;;4883215;29;20033;-66
2021/12/27 06:14:06;;;;;;;0.00;0.00;;;-1.70;99.90;;;;;;4901120;29;20036;-65
2021/12/27 06:16:32;;;;;;;0.00;0.00;;;-1.60;99.90;;;;;;4896448;29;20084;-66
2021/12/27 06:18:57;;;;;;;0.00;0.00;;;-1.70;99.90;;;;;;4901043;29;20539;-66
2021/12/27 06:21:23;;;;;;;0.00;0.00;;;-1.70;99.90;;;;;;4900824;29;20417;-66
2021/12/27 06:23:49;;;;;;;0.00;0.00;;;-1.70;99.90;;;;;;4900748;29;20041;-66
2021/12/27 06:26:14;;;;;;;0.00;0.00;;;-1.60;99.90;;;;;;4888935;29;20124;-66
2021/12/27 06:28:40;;;;;;;0.00;0.00;;;-1.60;99.90;;;;;;4844573;29;20051;-66
2021/12/27 06:31:06;;;;;;;0.00;0.00;;;-1.60;99.90;;;;;;4902875;29;20056;-66
2021/12/27 06:33:32;;;;;;;0.00;0.00;;;-1.60;99.90;;;;;;4884696;29;20088;-66
2021/12/27 06:35:58;;;;;;;0.00;0.00;;;-1.60;99.90;;;;;;4891544;29;20024;-66
2021/12/27 06:38:24;;;;;;;0.00;0.00;;;-1.60;99.90;;;;;;4900510;29;20488;-66
2021/12/27 06:40:50;;;;;;;0.00;0.00;;;-1.60;99.90;;;;;;4890268;29;20040;-67
2021/12/27 06:43:15;;;;;;;0.00;0.00;;;-1.50;99.90;;;;;;4900669;29;20130;-66
2021/12/27 06:45:41;;;;;;;0.00;0.00;;;-1.50;99.90;;;;;;4887551;29;20033;-65
2021/12/27 06:48:07;;;;;;;0.00;0.00;;;-1.50;99.90;;;;;;4884870;29;20024;-67
2021/12/27 06:50:32;;;;;;;0.00;0.00;;;-1.50;99.90;;;;;;4893441;29;20036;-66
2021/12/27 06:52:58;;;;;;;0.00;0.00;;;-1.50;99.90;;;;;;4897086;29;20732;-66
2021/12/27 06:55:23;;;;;;;0.00;0.00;;;-1.50;99.90;;;;;;4887737;29;20433;-66
2021/12/27 06:57:49;;;;;;;0.00;0.00;;;-1.50;99.90;;;;;;4887608;29;20024;-66
2021/12/27 07:00:16;;;;;;;0.00;0.00;;;-1.40;99.90;;;;;;4897219;29;20033;-66
2021/12/27 07:02:43;;;;;;;0.00;0.00;;;-1.50;99.90;;;;;;4885680;29;20092;-66
2021/12/27 07:05:10;;;;;;;0.00;0.00;;;-1.40;99.90;;;;;;4883371;29;20029;-66
2021/12/27 07:07:36;;;;;;;0.00;0.00;;;-1.40;99.90;;;;;;4888606;29;20078;-66
2021/12/27 07:10:02;;;;;;;0.00;0.00;;;-1.40;99.90;;;;;;4889151;29;20040;-66
2021/12/27 07:12:29;;;;;;;0.00;0.00;;;-1.40;99.90;;;;;;4887350;29;20384;-67
2021/12/27 07:14:55;;;;;;;0.00;0.00;;;-1.40;99.90;;;;;;4884856;29;20028;-65
2021/12/27 07:17:20;;;;;;;0.00;0.00;;;-1.40;99.90;;;;;;4891139;29;20028;-67
2021/12/27 07:19:46;;;;;;;0.00;0.00;;;-1.40;99.90;;;;;;4888542;29;20036;-66
2021/12/27 07:22:12;;;;;;;0.00;0.00;;;-1.40;99.90;;;;;;4890149;29;20029;-66
2021/12/27 07:24:37;;;;;;;0.00;0.00;;;-1.40;99.90;;;;;;4887520;29;20037;-66
2021/12/27 07:27:03;;;;;;;0.00;0.00;;;-1.40;99.90;;;;;;4890090;29;20477;-67
2021/12/27 07:29:29;;;;;;;0.00;0.00;;;-1.30;99.90;;;;;;4886535;29;20037;-66
2021/12/27 07:31:55;;;;;;;0.00;0.00;;;-1.40;99.90;;;;;;4887346;29;20464;-67
2021/12/27 07:34:24;;;;;;;0.00;0.00;;;-1.30;99.90;;;;;;4887029;29;20068;-66
2021/12/27 07:36:53;;;;;;;0.00;0.00;;;-1.30;99.90;;;;;;4889536;29;20552;-66
2021/12/27 07:39:21;;;;;;;0.00;0.00;;;-1.30;99.90;;;;;;4890319;29;20481;-67
2021/12/27 07:41:47;;;;;;;0.00;0.00;;;-1.30;99.90;;;;;;4887812;29;20056;-66
2021/12/27 07:44:13;;;;;;;0.00;0.00;;;-1.30;99.90;;;;;;4885210;29;20033;-66
2021/12/27 07:46:40;;;;;;;0.00;0.00;;;-1.30;99.90;;;;;;4887903;29;20103;-67
2021/12/27 07:49:07;;;;;;;0.00;0.00;;;-1.30;99.90;;;;;;4890801;29;20100;-66
2021/12/27 07:51:32;;;;;;;0.00;0.00;;;-1.30;99.90;;;;;;4895296;29;20036;-66
2021/12/27 07:53:58;;;;;;;0.00;0.00;;;-1.30;99.90;;;;;;4888773;29;20040;-67
2021/12/27 07:56:24;;;;;;;0.00;0.00;;;-1.20;99.90;;;;;;4886574;29;20033;-66
2021/12/27 07:58:49;;;;;;;0.00;0.00;;;-1.20;99.90;;;;;;4885025;29;20401;-67
2021/12/27 08:01:16;;;;;;;0.00;0.00;;;-1.20;99.90;;;;;;4891492;29;20033;-66
2021/12/27 08:03:42;;;;;;;0.00;0.00;;;-1.20;99.90;;;;;;4887571;29;20433;-65
2021/12/27 08:06:08;;;;;;;0.00;0.00;;;-1.20;99.90;;;;;;4898764;29;20112;-69
2021/12/27 08:08:33;;;;;;;0.00;0.00;;;-1.20;99.90;;;;;;4888890;29;20465;-67
2021/12/27 08:10:59;;;;;;;0.00;0.00;;;-1.20;99.90;;;;;;4893346;29;20428;-66
2021/12/27 08:13:24;;;;;;;0.00;0.00;;;-1.20;99.90;;;;;;4881763;29;20033;-67
2021/12/27 08:15:50;;;;;;;0.00;0.00;;;-1.20;99.90;;;;;;4889906;29;20464;-66
2021/12/27 08:18:16;;;;;;;0.00;0.00;;;-1.20;99.90;;;;;;4884219;29;20033;-67
2021/12/27 08:20:41;;;;;;;0.00;0.00;;;-1.20;99.90;;;;;;4885082;29;20115;-66
2021/12/27 08:23:07;;;;;;;0.00;0.00;;;-1.20;99.90;;;;;;4880294;29;20445;-66
2021/12/27 08:25:33;;;;;;;0.00;0.00;;;-1.10;99.90;;;;;;4894164;29;20041;-66
2021/12/27 08:27:58;;;;;;;0.00;0.00;;;-1.10;99.90;;;;;;4892872;29;20020;-66
2021/12/27 08:30:24;;;;;;;0.00;0.00;;;-1.10;99.90;;;;;;4882837;29;20496;-67
2021/12/27 08:32:51;;;;;;;0.00;0.00;;;-1.10;99.90;;;;;;4885760;29;20435;-66
2021/12/27 08:35:17;;;;;;;0.00;0.00;;;-1.10;99.90;;;;;;4888498;29;20044;-67
2021/12/27 08:37:44;;;;;;;0.00;0.00;;;-1.10;99.90;;;;;;4887308;29;20024;-66
2021/12/27 08:40:10;;;;;;;0.00;0.00;;;-1.10;99.90;;;;;;4890307;29;20037;-65
2021/12/27 08:42:36;;;;;;;0.00;0.00;;;-1.00;99.90;;;;;;4885576;29;20029;-66
2021/12/27 08:45:03;;;;;;;0.00;0.00;;;-1.00;99.90;;;;;;4891224;29;20037;-67
2021/12/27 08:47:30;;;;;;;0.00;0.00;;;-1.00;99.90;;;;;;4891679;29;20033;-66
2021/12/27 08:49:55;;;;;;;0.00;0.00;;;-1.00;99.90;;;;;;4896242;29;20111;-66
2021/12/27 08:52:21;;;;;;;0.00;0.00;;;-1.00;99.90;;;;;;4890598;29;20128;-66
2021/12/27 08:54:47;;;;;;;0.00;0.00;;;-1.00;99.90;;;;;;4886367;29;20041;-67
2021/12/27 08:57:12;;;;;;;0.00;0.00;;;-0.90;99.90;;;;;;4892631;29;20029;-67
2021/12/27 08:59:38;;;;;;;0.00;0.00;;;-0.90;99.90;;;;;;4893074;29;20484;-67
2021/12/27 09:02:05;;;;;;;0.00;0.00;;;-0.90;99.90;;;;;;4886441;29;20033;-66
2021/12/27 09:04:31;;;;;;;0.00;0.00;;;-0.90;99.90;;;;;;4881817;29;20397;-66
2021/12/27 09:06:58;;;;;;;0.00;0.00;;;-0.80;99.90;;;;;;4887294;29;20029;-67
2021/12/27 09:09:24;;;;;;;0.00;0.00;;;-0.60;99.90;;;;;;4886832;29;20075;-67
2021/12/27 09:11:50;;;;;;;0.00;0.00;;;-0.60;99.90;;;;;;4885799;29;20068;-67
2021/12/27 09:14:16;;;;;;;0.00;0.00;;;-0.50;99.90;;;;;;4887622;29;20075;-68
2021/12/27 09:16:44;;;;;;;0.00;0.00;;;-0.50;99.90;;;;;;4888300;29;20503;-67
2021/12/27 09:19:10;;;;;;;0.00;0.00;;;-0.50;99.90;;;;;;4882592;29;20408;-68
2021/12/27 09:21:37;;;;;;;0.00;0.00;;;-0.40;99.90;;;;;;4886237;29;21490;-68
2021/12/27 09:24:03;;;;;;;0.00;0.00;;;-0.30;99.90;;;;;;4884565;29;20044;-68
2021/12/27 09:26:29;;;;;;;0.00;0.00;;;-0.30;99.90;;;;;;4890425;29;20075;-68
2021/12/27 09:28:55;;;;;;;0.00;0.00;;;-0.20;99.90;;;;;;4886202;29;20481;-68
2021/12/27 09:31:21;;;;;;;0.00;0.00;;;-0.10;99.90;;;;;;4890013;29;20036;-69
2021/12/27 09:33:47;;;;;;;0.00;0.00;;;0.00;99.90;;;;;;4885864;29;20063;-68
2021/12/27 09:36:12;;;;;;;0.00;0.00;;;0.00;99.90;;;;;;4884852;29;20036;-68
2021/12/27 09:38:38;;;;;;;0.00;0.00;;;0.10;99.90;;;;;;4888025;29;20029;-69
2021/12/27 09:41:03;;;;;;;0.00;0.00;;;0.10;99.90;;;;;;4887058;29;20532;-69
2021/12/27 09:43:30;;;;;;;0.00;0.00;;;0.20;99.90;;;;;;4897359;29;20036;-69
2021/12/27 09:45:55;;;;;;;0.00;0.00;;;0.20;99.90;;;;;;4877787;29;20028;-69
2021/12/27 09:48:21;;;;;;;0.00;0.00;;;0.20;99.90;;;;;;4882776;29;20530;-69
2021/12/27 09:50:50;;;;;;;0.00;0.00;;;0.20;99.90;;;;;;4877998;29;20025;-69
2021/12/27 09:53:16;;;;;;;0.00;0.00;;;0.20;99.90;;;;;;4877825;29;20029;-69
2021/12/27 09:55:42;;;;;;;0.00;0.00;;;0.20;99.90;;;;;;4893129;29;20468;-69
2021/12/27 09:58:08;;;;;;;0.00;0.00;;;0.20;99.90;;;;;;4888688;29;20032;-69
2021/12/27 10:00:36;;;;;;;0.00;0.00;;;0.20;99.90;;;;;;4892527;29;20080;-70
2021/12/27 10:03:02;;;;;;;0.00;0.00;;;0.30;99.90;;;;;;4881035;29;20041;-70
2021/12/27 10:05:30;;;;;;;0.00;0.00;;;0.20;99.90;;;;;;4893883;29;20076;-69
2021/12/27 10:07:57;;;;;;;0.00;0.00;;;0.20;99.90;;;;;;4886082;29;20036;-69
2021/12/27 10:10:23;;;;;;;0.00;0.00;;;0.20;99.90;;;;;;4891831;29;20037;-69
2021/12/27 10:12:49;;;;;;;0.00;0.00;;;0.20;99.90;;;;;;4885520;29;20041;-70
2021/12/27 10:15:18;;;;;;;0.00;0.00;;;0.30;99.90;;;;;;4885828;29;20033;-70
2021/12/27 10:17:45;;;;;;;0.00;0.00;;;0.30;99.90;;;;;;4883709;29;20511;-70
2021/12/27 10:20:17;;;;;;;0.00;0.00;;;0.30;99.90;;;;;;4893652;29;20044;-70
2021/12/27 10:22:46;;;;;;;0.00;0.00;;;0.40;99.90;;;;;;4896980;29;20048;-70
2021/12/27 10:25:26;;;;;;;0.00;0.00;;;0.50;99.90;;;;;;4890801;29;20036;-70
2021/12/27 10:27:54;;;;;;;0.00;0.00;;;0.50;99.90;;;;;;4887465;29;20037;-70
2021/12/27 10:30:24;;;;;;;0.00;0.00;;;0.50;99.90;;;;;;4876954;29;20497;-71
2021/12/27 10:33:04;;;;;;;0.00;0.00;;;0.50;99.90;;;;;;4879845;29;20040;-71
2021/12/27 10:35:40;;;;;;;0.00;0.00;;;0.50;99.90;;;;;;4896401;29;20051;-70
2021/12/27 10:38:13;;;;;;;0.00;0.00;;;0.50;99.90;;;;;;4896425;29;20037;-71
2021/12/27 10:40:46;;;;;;;0.00;0.00;;;0.60;99.90;;;;;;4896060;29;20033;-71
2021/12/27 10:43:12;;;;;;;0.00;0.00;;;0.60;99.90;;;;;;4893091;29;20039;-71
2021/12/27 10:45:39;;;;;;;0.00;0.00;;;0.60;99.90;;;;;;4884242;29;20388;-71
2021/12/27 10:48:04;;;;;;;0.00;0.00;;;0.50;99.90;;;;;;4896210;29;20056;-72
2021/12/27 10:50:31;;;;;;;0.00;0.00;;;0.60;99.90;;;;;;4894581;29;20064;-71
2021/12/27 10:52:57;;;;;;;0.00;0.00;;;0.60;99.90;;;;;;4890238;29;20036;-72
2021/12/27 10:55:38;;;;;;;0.00;0.00;;;0.70;99.90;;;;;;4890470;29;20037;-70
2021/12/27 10:58:23;;;;;;;0.00;0.00;;;0.60;99.90;;;;;;4898660;29;20028;-71
2021/12/27 11:00:56;;;;;;;0.00;0.00;;;0.60;99.90;;;;;;4890007;29;20055;-71
2021/12/27 11:03:35;;;;;;;0.00;0.00;;;0.60;99.90;;;;;;4886974;29;20032;-71
2021/12/27 11:06:03;;;;;;;0.00;0.00;;;0.60;99.90;;;;;;4887700;29;20043;-71
2021/12/27 11:08:30;;;;;;;0.00;0.00;;;0.70;99.90;;;;;;4899932;29;20040;-70
2021/12/27 11:10:56;;;;;;;0.00;0.00;;;0.80;99.90;;;;;;4883039;29;20317;-70
2021/12/27 11:13:23;;;;;;;0.00;0.00;;;0.80;99.90;;;;;;4880799;29;20036;-71
2021/12/27 11:15:49;;;;;;;0.00;0.00;;;0.90;99.90;;;;;;4887300;29;20043;-68
2021/12/27 11:18:15;;;;;;;0.00;0.00;;;0.80;99.90;;;;;;4884901;29;20120;-70
2021/12/27 11:20:52;;;;;;;0.00;0.00;;;0.80;99.90;;;;;;4892320;29;20556;-71
2021/12/27 11:23:20;;;;;;;0.00;0.00;;;0.90;99.90;;;;;;4885846;29;20083;-69
2021/12/27 11:25:46;;;;;;;0.00;0.00;;;0.90;99.90;;;;;;4899589;29;20033;-69
2021/12/27 11:28:36;;;;;;;0.00;0.00;;;1.00;99.90;;;;;;4890747;29;20060;-67
2021/12/27 11:31:15;;;;;;;0.00;0.00;;;1.00;99.90;;;;;;4882766;29;20441;-71
2021/12/27 11:33:58;;;;;;;0.00;0.00;;;0.90;99.90;;;;;;4876176;29;20033;-67
2021/12/27 11:36:26;;;;;;;0.00;0.00;;;1.00;99.90;;;;;;4895397;29;20385;-67
2021/12/27 11:38:52;;;;;;;0.00;0.00;;;1.10;99.90;;;;;;4899303;29;20036;-71
2021/12/27 11:41:26;;;;;;;0.00;0.00;;;1.10;99.90;;;;;;4898889;29;20029;-70
2021/12/27 11:43:53;;;;;;;0.00;0.00;;;1.10;99.90;;;;;;4897301;29;20433;-69
2021/12/27 11:46:21;;;;;;;0.00;0.00;;;1.10;99.90;;;;;;4888324;29;20124;-67
2021/12/27 11:48:52;;;;;;;0.00;0.00;;;1.20;99.90;;;;;;4891706;29;20033;-69
2021/12/27 11:51:33;;;;;;;0.00;0.00;;;1.20;99.90;;;;;;4883207;29;20123;-69
2021/12/27 11:54:01;;;;;;;0.00;0.00;;;1.20;99.90;;;;;;4890361;29;20041;-67
2021/12/27 11:56:39;;;;;;;0.00;0.00;;;1.30;99.90;;;;;;4889808;29;20047;-68
2021/12/27 11:59:27;;;;;;;0.00;0.00;;;1.40;99.90;;;;;;4890276;29;20117;-67
2021/12/27 12:01:57;;;;;;;0.00;0.00;;;1.50;99.90;;;;;;4886565;29;20551;-68
2021/12/27 12:04:42;;;;;;;0.00;0.00;;;1.50;99.90;;;;;;4887297;29;20033;-68
2021/12/27 12:07:33;;;;;;;0.00;0.00;;;1.50;99.90;;;;;;4886985;29;20044;-67
2021/12/27 12:10:00;;;;;;;0.00;0.00;;;1.40;99.90;;;;;;4880883;29;20043;-69
2021/12/27 12:12:28;;;;;;;0.00;0.00;;;1.40;99.90;;;;;;4891426;29;20381;-69
2021/12/27 12:14:56;;;;;;;0.00;0.00;;;1.40;99.90;;;;;;4887461;29;20652;-68
2021/12/27 12:17:48;;;;;;;0.00;0.00;;;1.40;99.90;;;;;;4888042;29;20116;-67
2021/12/27 12:20:33;;;;;;;0.00;0.00;;;1.40;99.90;;;;;;4886894;29;20037;-69
2021/12/27 12:23:09;;;;;;;0.00;0.00;;;1.50;99.90;;;;;;4844956;29;20056;-68
2021/12/27 12:25:37;;;;;;;0.00;0.00;;;1.50;99.90;;;;;;4893103;29;20395;-70
2021/12/27 12:28:08;;;;;;;0.00;0.00;;;1.40;99.90;;;;;;4887647;29;20366;-67
2021/12/27 12:30:39;;;;;;;0.00;0.00;;;1.40;99.90;;;;;;4885501;29;20056;-70
2021/12/27 12:33:15;;;;;;;0.00;0.00;;;1.40;99.90;;;;;;4883760;29;20068;-69
2021/12/27 12:35:44;;;;;;;0.00;0.00;;;1.40;99.90;;;;;;4885113;29;20037;-69
2021/12/27 12:38:22;;;;;;;0.00;0.00;;;1.40;99.90;;;;;;4883819;29;20092;-67
2021/12/27 12:41:13;;;;;;;0.00;0.00;;;1.40;99.90;;;;;;4881584;29;20044;-69
2021/12/27 12:43:43;;;;;;;0.00;0.00;;;1.40;99.90;;;;;;4887425;29;20029;-68
2021/12/27 12:46:15;;;;;;;0.00;0.00;;;1.50;99.90;;;;;;4887233;29;20472;-67
2021/12/27 12:48:41;;;;;;;0.00;0.00;;;1.50;99.90;;;;;;4885008;29;20445;-68
2021/12/27 12:51:06;;;;;;;0.00;0.00;;;1.60;99.90;;;;;;4886151;29;20033;-69
2021/12/27 12:53:33;;;;;;;0.00;0.00;;;1.60;99.90;;;;;;4890009;29;20029;-67
2021/12/27 12:56:06;;;;;;;0.00;0.00;;;1.70;99.90;;;;;;4884746;29;20077;-69
2021/12/27 12:58:34;;;;;;;0.00;0.00;;;1.70;99.90;;;;;;4882917;29;20051;-67
2021/12/27 13:01:06;;;;;;;0.00;0.00;;;1.70;99.90;;;;;;4886262;29;20035;-67
2021/12/27 13:03:32;;;;;;;0.00;0.00;;;1.80;99.90;;;;;;4883678;29;20064;-66